Time;durP1;ratioP1;P1;durP2;ratioP2;P2;SDS_P1;SDS_P2;PMS_P1;PMS_P2;Temp;Humidity;BMP_temperature;BMP_pressure;BME280_temperature;BME280_humidity;BME280_pressure;Samples;Min_cycle;Max_cycle;Signal;HPM_P1;HPM_P2
2021/07/15 00:00:11;;;;;;;46.30;26.42;;;;;;;;;;5042298;28;20041;-74
2021/07/15 00:02:37;;;;;;;49.38;27.13;;;;;;;;;;5042020;28;20080;-75
2021/07/15 00:05:06;;;;;;;45.30;25.63;;;;;;;;;;5048170;28;20041;-74
2021/07/15 00:07:33;;;;;;;51.67;26.27;;;;;;;;;;5045243;28;20041;-75
2021/07/15 00:09:59;;;;;;;49.08;26.02;;;;;;;;;;5048482;28;20049;-74
2021/07/15 00:12:25;;;;;;;51.25;26.23;;;;;;;;;;5041357;28;20127;-74
2021/07/15 00:14:51;;;;;;;44.80;25.90;;;;;;;;;;5045338;28;20045;-75
2021/07/15 00:17:18;;;;;;;42.05;23.50;;;;;;;;;;5043206;28;20057;-74
2021/07/15 00:19:44;;;;;;;47.58;26.20;;;;;;;;;;5044585;28;20055;-74
2021/07/15 00:22:10;;;;;;;43.88;26.05;;;;;;;;;;5043067;28;20051;-74
2021/07/15 00:24:37;;;;;;;43.65;24.75;;;;;;;;;;5042733;28;20043;-75
2021/07/15 00:27:03;;;;;;;39.88;24.45;;;;;;;;;;5041792;28;20103;-74
2021/07/15 00:29:29;;;;;;;33.65;23.35;;;;;;;;;;5044682;28;20041;-75
2021/07/15 00:31:56;;;;;;;37.47;23.45;;;;;;;;;;5044399;28;20049;-75
2021/07/15 00:34:22;;;;;;;38.10;22.75;;;;;;;;;;5042549;28;20048;-75
2021/07/15 00:36:48;;;;;;;32.95;21.45;;;;;;;;;;5044447;28;20172;-74
2021/07/15 00:39:14;;;;;;;35.88;21.48;;;;;;;;;;5044380;28;20044;-75
2021/07/15 00:41:40;;;;;;;39.08;22.98;;;;;;;;;;5045069;28;20420;-74
2021/07/15 00:44:07;;;;;;;38.45;22.95;;;;;;;;;;5041996;28;20037;-75
2021/07/15 00:46:33;;;;;;;38.85;23.05;;;;;;;;;;5046414;28;20139;-74
2021/07/15 00:49:00;;;;;;;40.33;24.95;;;;;;;;;;5043295;28;20068;-75
2021/07/15 00:51:27;;;;;;;40.42;23.60;;;;;;;;;;5044145;28;20056;-75
2021/07/15 00:53:53;;;;;;;34.83;23.08;;;;;;;;;;5041127;28;20033;-75
2021/07/15 00:56:22;;;;;;;39.97;21.63;;;;;;;;;;5043405;28;20049;-75
2021/07/15 00:58:48;;;;;;;39.20;24.42;;;;;;;;;;5045169;28;20059;-75
2021/07/15 01:01:14;;;;;;;39.78;23.58;;;;;;;;;;5041281;28;20485;-75
2021/07/15 01:03:44;;;;;;;48.40;25.60;;;;;;;;;;5044435;28;20044;-75
2021/07/15 01:06:10;;;;;;;40.58;25.08;;;;;;;;;;5045914;28;20045;-75
2021/07/15 01:08:36;;;;;;;46.65;27.20;;;;;;;;;;5047568;28;20045;-75
2021/07/15 01:11:11;;;;;;;49.47;26.55;;;;;;;;;;5046954;28;20049;-74
2021/07/15 01:13:42;;;;;;;43.80;25.92;;;;;;;;;;5044321;28;20045;-74
2021/07/15 01:16:12;;;;;;;47.72;27.42;;;;;;;;;;5042596;28;20064;-74
2021/07/15 01:18:44;;;;;;;46.05;24.85;;;;;;;;;;5043835;28;20104;-75
2021/07/15 01:21:11;;;;;;;50.58;26.80;;;;;;;;;;5045670;28;20120;-75
2021/07/15 01:23:48;;;;;;;44.97;27.15;;;;;;;;;;5039875;28;20051;-74
2021/07/15 01:26:21;;;;;;;56.92;28.50;;;;;;;;;;5037341;28;20053;-74
2021/07/15 01:28:56;;;;;;;60.10;29.20;;;;;;;;;;5045267;28;20052;-75
2021/07/15 01:31:24;;;;;;;55.55;28.70;;;;;;;;;;5045179;28;20108;-75
2021/07/15 01:33:51;;;;;;;59.38;28.98;;;;;;;;;;5046367;28;20218;-75
2021/07/15 01:36:19;;;;;;;54.50;27.40;;;;;;;;;;5042804;28;20147;-74
2021/07/15 01:38:48;;;;;;;53.90;30.30;;;;;;;;;;5060323;28;20477;-74
2021/07/15 01:41:23;;;;;;;56.60;27.27;;;;;;;;;;5043559;28;20041;-75
2021/07/15 01:43:55;;;;;;;46.80;26.67;;;;;;;;;;5045145;28;20049;-75
2021/07/15 01:46:22;;;;;;;50.85;27.95;;;;;;;;;;5044581;28;20037;-74
2021/07/15 01:48:49;;;;;;;54.33;27.02;;;;;;;;;;5046469;28;20044;-75
2021/07/15 01:51:16;;;;;;;53.25;27.60;;;;;;;;;;5041010;28;20085;-74
2021/07/15 01:53:43;;;;;;;53.65;26.77;;;;;;;;;;5039147;28;20054;-74
2021/07/15 01:56:10;;;;;;;55.97;26.33;;;;;;;;;;5042571;28;20045;-74
2021/07/15 01:58:37;;;;;;;52.95;25.58;;;;;;;;;;5041601;28;20044;-75
2021/07/15 02:01:04;;;;;;;55.20;25.75;;;;;;;;;;5042483;28;20737;-75
2021/07/15 02:03:31;;;;;;;51.38;26.02;;;;;;;;;;5043838;28;20091;-74
2021/07/15 02:05:58;;;;;;;52.78;24.80;;;;;;;;;;5041583;28;20072;-75
2021/07/15 02:08:24;;;;;;;47.65;24.85;;;;;;;;;;5044397;28;20415;-75
2021/07/15 02:10:53;;;;;;;52.63;25.92;;;;;;;;;;5041636;28;20041;-74
2021/07/15 02:13:20;;;;;;;53.50;25.10;;;;;;;;;;5042100;28;20120;-75
2021/07/15 02:15:46;;;;;;;49.20;25.83;;;;;;;;;;5045052;28;20136;-74
2021/07/15 02:18:14;;;;;;;45.63;25.02;;;;;;;;;;5045787;28;20033;-75
2021/07/15 02:20:41;;;;;;;49.60;25.65;;;;;;;;;;5035581;28;20041;-74
2021/07/15 02:23:08;;;;;;;51.70;24.98;;;;;;;;;;5039509;28;20057;-75
2021/07/15 02:25:36;;;;;;;47.50;24.98;;;;;;;;;;5040850;28;20051;-74
2021/07/15 02:28:03;;;;;;;48.63;23.42;;;;;;;;;;5043941;28;20048;-75
2021/07/15 02:30:29;;;;;;;42.88;23.10;;;;;;;;;;5043360;28;20118;-75
2021/07/15 02:32:56;;;;;;;36.05;20.90;;;;;;;;;;5040237;28;20151;-75
2021/07/15 02:35:23;;;;;;;41.70;22.60;;;;;;;;;;5041518;28;20159;-75
2021/07/15 02:37:53;;;;;;;43.80;22.00;;;;;;;;;;5042516;28;20166;-75
2021/07/15 02:40:19;;;;;;;44.55;22.13;;;;;;;;;;5046070;28;20046;-75
2021/07/15 02:42:46;;;;;;;43.10;20.33;;;;;;;;;;5045564;28;20045;-74
2021/07/15 02:45:18;;;;;;;43.13;21.10;;;;;;;;;;5044889;28;20059;-75
2021/07/15 02:47:46;;;;;;;36.43;20.83;;;;;;;;;;5041912;28;20078;-74
2021/07/15 02:50:13;;;;;;;38.72;20.60;;;;;;;;;;5041134;28;20451;-74
2021/07/15 02:52:40;;;;;;;43.88;22.10;;;;;;;;;;5040932;28;20052;-74
2021/07/15 02:55:07;;;;;;;39.88;20.92;;;;;;;;;;5041987;28;20041;-75
2021/07/15 02:57:44;;;;;;;39.28;21.45;;;;;;;;;;5042282;28;20083;-75
2021/07/15 03:00:11;;;;;;;42.58;20.88;;;;;;;;;;5038351;28;20500;-75
2021/07/15 03:02:48;;;;;;;34.92;20.33;;;;;;;;;;5038601;28;20053;-74
2021/07/15 03:05:21;;;;;;;38.45;18.30;;;;;;;;;;5037503;28;20068;-74
2021/07/15 03:07:49;;;;;;;39.78;18.25;;;;;;;;;;5041925;28;20044;-75
2021/07/15 03:10:16;;;;;;;37.08;19.10;;;;;;;;;;5040295;28;20411;-75
2021/07/15 03:12:43;;;;;;;35.33;18.67;;;;;;;;;;5043607;28;20124;-74
2021/07/15 03:15:10;;;;;;;37.67;18.52;;;;;;;;;;5044146;28;20045;-74
2021/07/15 03:17:38;;;;;;;38.10;18.25;;;;;;;;;;5040208;28;20516;-74
2021/07/15 03:20:07;;;;;;;38.38;19.45;;;;;;;;;;5047931;28;20044;-74
2021/07/15 03:22:36;;;;;;;35.67;18.02;;;;;;;;;;5042011;28;20091;-74
2021/07/15 03:25:04;;;;;;;40.80;20.17;;;;;;;;;;5045402;28;20059;-75
2021/07/15 03:27:31;;;;;;;45.50;19.23;;;;;;;;;;5043276;28;20084;-74
2021/07/15 03:29:58;;;;;;;40.05;18.30;;;;;;;;;;5041445;28;20049;-74
2021/07/15 03:32:25;;;;;;;33.40;17.88;;;;;;;;;;5044010;28;20041;-74
2021/07/15 03:34:52;;;;;;;48.47;19.77;;;;;;;;;;5045612;28;20047;-74
2021/07/15 03:37:19;;;;;;;38.28;17.83;;;;;;;;;;5037269;28;20060;-74
2021/07/15 03:39:47;;;;;;;41.50;17.90;;;;;;;;;;5043956;28;20041;-75
2021/07/15 03:42:14;;;;;;;41.65;19.30;;;;;;;;;;5043346;28;21565;-74
2021/07/15 03:44:40;;;;;;;39.42;17.73;;;;;;;;;;5039600;28;20049;-75
2021/07/15 03:47:06;;;;;;;43.78;18.08;;;;;;;;;;5042279;28;20368;-75
2021/07/15 03:49:32;;;;;;;38.63;17.92;;;;;;;;;;5041421;28;20045;-74
2021/07/15 03:51:59;;;;;;;38.50;18.17;;;;;;;;;;5042314;28;20184;-74
2021/07/15 03:54:26;;;;;;;42.40;19.05;;;;;;;;;;5045280;28;20102;-75
2021/07/15 03:56:53;;;;;;;39.83;16.92;;;;;;;;;;5041091;28;20048;-74
2021/07/15 03:59:20;;;;;;;40.08;17.38;;;;;;;;;;5040632;28;20064;-74
2021/07/15 04:01:50;;;;;;;47.38;18.02;;;;;;;;;;5041847;28;20052;-74
2021/07/15 04:04:17;;;;;;;30.92;15.27;;;;;;;;;;5041844;28;20075;-74
2021/07/15 04:06:44;;;;;;;37.00;16.08;;;;;;;;;;5042861;28;20060;-74
2021/07/15 04:09:10;;;;;;;41.90;17.40;;;;;;;;;;5041462;28;20046;-75
2021/07/15 04:11:41;;;;;;;51.45;18.80;;;;;;;;;;5044041;28;20049;-74
2021/07/15 04:14:09;;;;;;;37.35;16.75;;;;;;;;;;5043125;28;20045;-75
2021/07/15 04:16:51;;;;;;;34.28;17.70;;;;;;;;;;5042919;28;20068;-74
2021/07/15 04:19:18;;;;;;;40.83;17.60;;;;;;;;;;5041595;28;20036;-74
2021/07/15 04:21:44;;;;;;;43.42;18.73;;;;;;;;;;5042785;28;20054;-74
2021/07/15 04:24:11;;;;;;;40.55;18.67;;;;;;;;;;5043781;28;20068;-75
2021/07/15 04:26:37;;;;;;;39.95;20.13;;;;;;;;;;5041732;28;20063;-74
2021/07/15 04:29:04;;;;;;;43.88;19.40;;;;;;;;;;5043734;28;20064;-74
2021/07/15 04:31:35;;;;;;;43.63;18.35;;;;;;;;;;5045092;28;20408;-75
2021/07/15 04:34:02;;;;;;;33.90;16.55;;;;;;;;;;5044346;28;20179;-74
2021/07/15 04:36:30;;;;;;;41.53;16.55;;;;;;;;;;5046544;28;20079;-74
2021/07/15 04:38:56;;;;;;;36.67;15.05;;;;;;;;;;5042711;28;20056;-75
2021/07/15 04:41:24;;;;;;;32.58;14.07;;;;;;;;;;5038693;28;20037;-75
2021/07/15 04:43:52;;;;;;;39.60;14.02;;;;;;;;;;5045381;28;20158;-75
2021/07/15 04:46:19;;;;;;;36.35;12.95;;;;;;;;;;5041627;28;20076;-75
2021/07/15 04:48:46;;;;;;;33.13;13.20;;;;;;;;;;5042186;28;20087;-74
2021/07/15 04:51:15;;;;;;;32.17;12.63;;;;;;;;;;5042044;28;20085;-74
2021/07/15 04:53:41;;;;;;;35.47;12.60;;;;;;;;;;5039483;28;20097;-75
2021/07/15 04:56:08;;;;;;;25.55;10.77;;;;;;;;;;5043317;28;20065;-75
2021/07/15 04:58:35;;;;;;;27.70;11.40;;;;;;;;;;5045989;28;20051;-75
2021/07/15 05:01:03;;;;;;;33.30;11.57;;;;;;;;;;5044555;28;21475;-74
2021/07/15 05:03:30;;;;;;;32.22;10.93;;;;;;;;;;5044303;28;20042;-75
2021/07/15 05:05:57;;;;;;;32.63;11.05;;;;;;;;;;5041674;28;20064;-75
2021/07/15 05:08:23;;;;;;;27.20;10.65;;;;;;;;;;5042124;28;20041;-74
2021/07/15 05:10:49;;;;;;;27.00;9.73;;;;;;;;;;5043846;28;20067;-75
2021/07/15 05:13:16;;;;;;;28.45;9.00;;;;;;;;;;5044578;28;20062;-74
2021/07/15 05:15:42;;;;;;;36.00;11.25;;;;;;;;;;5044761;28;20048;-76
2021/07/15 05:18:08;;;;;;;30.45;10.73;;;;;;;;;;5043671;28;20143;-75
2021/07/15 05:20:34;;;;;;;36.95;11.18;;;;;;;;;;5043728;28;20119;-74
2021/07/15 05:23:01;;;;;;;35.33;10.05;;;;;;;;;;5041206;28;20539;-74
2021/07/15 05:25:27;;;;;;;29.92;9.70;;;;;;;;;;5039193;28;20427;-75
2021/07/15 05:27:53;;;;;;;29.38;9.43;;;;;;;;;;5039975;28;20068;-75
2021/07/15 05:30:19;;;;;;;36.38;11.18;;;;;;;;;;5039428;28;20071;-74
2021/07/15 05:32:45;;;;;;;28.50;9.70;;;;;;;;;;5034210;28;20128;-75
2021/07/15 05:35:12;;;;;;;31.55;10.13;;;;;;;;;;5040445;28;20143;-75
2021/07/15 05:37:40;;;;;;;27.75;9.15;;;;;;;;;;5040119;28;20041;-74
2021/07/15 05:40:07;;;;;;;31.05;10.18;;;;;;;;;;5044106;28;20045;-75
2021/07/15 05:42:33;;;;;;;26.02;9.68;;;;;;;;;;5037314;28;20041;-75
2021/07/15 05:45:00;;;;;;;37.10;12.20;;;;;;;;;;5039993;28;20032;-74
2021/07/15 05:47:26;;;;;;;27.77;10.57;;;;;;;;;;5041385;28;20115;-74
2021/07/15 05:49:52;;;;;;;31.50;10.27;;;;;;;;;;5039496;28;20092;-74
2021/07/15 05:52:18;;;;;;;29.35;10.05;;;;;;;;;;5046725;28;20492;-74
2021/07/15 05:54:44;;;;;;;30.52;9.95;;;;;;;;;;5035050;28;20354;-73
2021/07/15 05:57:11;;;;;;;30.30;10.68;;;;;;;;;;5042914;28;20067;-74
2021/07/15 05:59:38;;;;;;;29.60;10.07;;;;;;;;;;5038291;28;20045;-74
2021/07/15 06:02:04;;;;;;;30.48;10.35;;;;;;;;;;5033636;28;20046;-74
2021/07/15 06:04:30;;;;;;;34.50;11.75;;;;;;;;;;5039506;28;20547;-74
2021/07/15 06:06:57;;;;;;;29.10;10.40;;;;;;;;;;5037618;28;20231;-74
2021/07/15 06:09:23;;;;;;;33.20;10.98;;;;;;;;;;5044622;28;20461;-74
2021/07/15 06:11:49;;;;;;;38.70;12.98;;;;;;;;;;5042364;28;20087;-74
2021/07/15 06:14:15;;;;;;;30.67;10.18;;;;;;;;;;5048600;28;20147;-77
2021/07/15 06:16:41;;;;;;;35.30;12.15;;;;;;;;;;5043246;28;20578;-84
2021/07/15 06:19:08;;;;;;;24.17;10.40;;;;;;;;;;5038246;28;20056;-73
2021/07/15 06:21:34;;;;;;;32.25;11.57;;;;;;;;;;5035879;28;20390;-74
2021/07/15 06:24:00;;;;;;;34.95;13.52;;;;;;;;;;5031867;28;20107;-74
2021/07/15 06:26:26;;;;;;;35.60;12.68;;;;;;;;;;5040330;28;20054;-74
2021/07/15 06:28:52;;;;;;;36.65;12.80;;;;;;;;;;5033113;28;20176;-75
2021/07/15 06:31:19;;;;;;;33.80;10.65;;;;;;;;;;5031779;28;20041;-74
2021/07/15 06:33:45;;;;;;;35.83;12.90;;;;;;;;;;5038737;28;20114;-74
2021/07/15 06:36:11;;;;;;;30.45;12.52;;;;;;;;;;5043179;28;20091;-74
2021/07/15 06:38:38;;;;;;;29.15;12.48;;;;;;;;;;5043916;28;20040;-75
2021/07/15 06:41:05;;;;;;;29.83;11.63;;;;;;;;;;5047539;28;20045;-74
2021/07/15 06:43:32;;;;;;;35.45;12.07;;;;;;;;;;5048789;28;20120;-74
2021/07/15 06:45:59;;;;;;;36.15;13.07;;;;;;;;;;5047068;28;20049;-74
2021/07/15 06:48:25;;;;;;;29.27;12.25;;;;;;;;;;5048915;28;20369;-75
2021/07/15 06:50:51;;;;;;;33.85;12.68;;;;;;;;;;5045750;28;20046;-75
2021/07/15 06:53:17;;;;;;;36.08;13.82;;;;;;;;;;5042067;28;20117;-73
2021/07/15 06:55:44;;;;;;;36.28;12.50;;;;;;;;;;5045458;28;20049;-74
2021/07/15 06:58:11;;;;;;;29.55;13.05;;;;;;;;;;5047050;28;20094;-74
2021/07/15 07:00:37;;;;;;;33.90;14.70;;;;;;;;;;5043392;28;20040;-74
2021/07/15 07:03:04;;;;;;;44.13;15.98;;;;;;;;;;5048160;28;20044;-74
2021/07/15 07:05:30;;;;;;;30.10;13.73;;;;;;;;;;5044551;28;20044;-74
2021/07/15 07:07:58;;;;;;;35.50;14.73;;;;;;;;;;5041216;28;20144;-74
2021/07/15 07:10:24;;;;;;;41.08;16.55;;;;;;;;;;5040267;28;20064;-74
2021/07/15 07:12:50;;;;;;;34.35;16.20;;;;;;;;;;5036251;28;20038;-74
2021/07/15 07:15:17;;;;;;;33.75;15.77;;;;;;;;;;5036615;28;20448;-74
2021/07/15 07:17:44;;;;;;;36.95;16.60;;;;;;;;;;5043629;28;20068;-75
2021/07/15 07:20:11;;;;;;;35.20;15.10;;;;;;;;;;5041214;28;20048;-74
2021/07/15 07:22:38;;;;;;;31.27;14.23;;;;;;;;;;5035028;28;20152;-74
2021/07/15 07:25:05;;;;;;;32.22;14.32;;;;;;;;;;5038797;28;20052;-74
2021/07/15 07:27:32;;;;;;;33.78;15.40;;;;;;;;;;5043117;28;20121;-74
2021/07/15 07:29:58;;;;;;;32.20;15.25;;;;;;;;;;5039634;28;20045;-74
2021/07/15 07:32:25;;;;;;;31.45;14.35;;;;;;;;;;5046412;28;20462;-74
2021/07/15 07:34:51;;;;;;;30.70;15.02;;;;;;;;;;5041637;28;20041;-74
2021/07/15 07:37:17;;;;;;;29.00;13.85;;;;;;;;;;5041578;28;20041;-75
2021/07/15 07:39:43;;;;;;;33.92;14.63;;;;;;;;;;5040604;28;20491;-74
2021/07/15 07:42:10;;;;;;;27.27;14.40;;;;;;;;;;5044817;28;20140;-74
2021/07/15 07:44:36;;;;;;;31.30;14.27;;;;;;;;;;5042502;28;20094;-73
2021/07/15 07:47:02;;;;;;;31.67;15.50;;;;;;;;;;5036629;28;20107;-74
2021/07/15 07:49:29;;;;;;;33.10;15.07;;;;;;;;;;5038302;28;20045;-73
2021/07/15 07:51:55;;;;;;;29.92;14.80;;;;;;;;;;5042842;28;20339;-76
2021/07/15 07:54:22;;;;;;;30.70;14.98;;;;;;;;;;5037302;28;20046;-83
2021/07/15 07:56:48;;;;;;;36.20;15.55;;;;;;;;;;5046157;28;20064;-75
2021/07/15 07:59:15;;;;;;;30.15;14.68;;;;;;;;;;5032561;28;20041;-75
2021/07/15 08:01:42;;;;;;;36.50;14.88;;;;;;;;;;5047139;28;20041;-75
2021/07/15 08:04:08;;;;;;;35.30;15.15;;;;;;;;;;5051075;28;20036;-75
2021/07/15 08:06:36;;;;;;;31.30;13.98;;;;;;;;;;5043168;28;20497;-76
2021/07/15 08:09:05;;;;;;;33.17;12.95;;;;;;;;;;5049256;28;20144;-75
2021/07/15 08:11:31;;;;;;;29.42;10.70;;;;;;;;;;5046507;28;20049;-75
2021/07/15 08:13:58;;;;;;;30.05;11.07;;;;;;;;;;5038354;28;20048;-75
2021/07/15 08:16:24;;;;;;;30.73;11.00;;;;;;;;;;5047271;28;20125;-73
2021/07/15 08:18:50;;;;;;;34.03;11.98;;;;;;;;;;5037802;28;20044;-75
2021/07/15 08:21:20;;;;;;;34.42;11.23;;;;;;;;;;5047086;28;20516;-75
2021/07/15 08:23:46;;;;;;;33.55;12.07;;;;;;;;;;5041602;28;20050;-75
2021/07/15 08:26:13;;;;;;;27.85;12.18;;;;;;;;;;5046273;28;20381;-75
2021/07/15 08:28:39;;;;;;;26.15;12.55;;;;;;;;;;5041853;28;20045;-78
2021/07/15 08:31:05;;;;;;;31.23;12.30;;;;;;;;;;5044075;28;20198;-75
2021/07/15 08:33:32;;;;;;;33.88;11.95;;;;;;;;;;5038991;28;20236;-76
2021/07/15 08:35:59;;;;;;;29.02;12.30;;;;;;;;;;5050260;28;20043;-75
2021/07/15 08:38:25;;;;;;;34.58;13.50;;;;;;;;;;5038101;28;20045;-75
2021/07/15 08:40:52;;;;;;;32.80;11.38;;;;;;;;;;5038788;28;20041;-75
2021/07/15 08:43:18;;;;;;;31.48;11.27;;;;;;;;;;5046527;28;20033;-75
2021/07/15 08:45:45;;;;;;;33.15;11.35;;;;;;;;;;5045925;28;20060;-75
2021/07/15 08:48:12;;;;;;;32.13;11.40;;;;;;;;;;5040448;28;20101;-75
2021/07/15 08:50:39;;;;;;;25.17;9.55;;;;;;;;;;5048520;28;20040;-75
2021/07/15 08:53:05;;;;;;;25.92;11.18;;;;;;;;;;5048058;28;20045;-75
2021/07/15 08:58:14;;;;;;;30.65;11.93;;;;;;;;;;5045649;28;20076;-75
2021/07/15 09:00:42;;;;;;;28.38;10.85;;;;;;;;;;5037444;28;20214;-75
2021/07/15 09:03:08;;;;;;;31.15;11.63;;;;;;;;;;5047695;28;20212;-76
2021/07/15 09:05:35;;;;;;;28.25;10.30;;;;;;;;;;5042631;28;20454;-75
2021/07/15 09:08:01;;;;;;;25.33;10.38;;;;;;;;;;5043507;28;20041;-75
2021/07/15 09:10:28;;;;;;;27.92;10.02;;;;;;;;;;5043078;28;20369;-75
2021/07/15 09:12:56;;;;;;;24.80;10.80;;;;;;;;;;5040624;28;20106;-75
2021/07/15 09:15:23;;;;;;;33.35;11.23;;;;;;;;;;5042235;28;20049;-74
2021/07/15 09:17:49;;;;;;;27.08;10.57;;;;;;;;;;5040732;28;20219;-83
2021/07/15 09:20:18;;;;;;;29.55;10.15;;;;;;;;;;5041048;28;20033;-74
2021/07/15 09:22:54;;;;;;;26.20;10.07;;;;;;;;;;5040778;28;20045;-73
2021/07/15 09:25:20;;;;;;;31.25;10.40;;;;;;;;;;5043076;28;20099;-73
2021/07/15 09:27:49;;;;;;;27.00;10.57;;;;;;;;;;5044554;28;20041;-74
2021/07/15 09:30:16;;;;;;;28.08;10.52;;;;;;;;;;5049798;28;20060;-74
2021/07/15 09:32:51;;;;;;;25.95;10.10;;;;;;;;;;5049419;28;20412;-74
2021/07/15 09:35:25;;;;;;;27.27;9.80;;;;;;;;;;5045152;28;20127;-73
2021/07/15 09:37:53;;;;;;;25.02;9.27;;;;;;;;;;5047975;28;20063;-73
2021/07/15 09:40:36;;;;;;;29.85;9.10;;;;;;;;;;5049703;28;20045;-73
2021/07/15 09:43:17;;;;;;;27.58;9.88;;;;;;;;;;5047748;28;20036;-73
2021/07/15 09:45:44;;;;;;;31.13;11.02;;;;;;;;;;5041329;28;20053;-73
2021/07/15 09:48:15;;;;;;;21.27;9.68;;;;;;;;;;5036643;28;20804;-73
2021/07/15 09:50:41;;;;;;;27.92;10.60;;;;;;;;;;5038491;28;20461;-73
2021/07/15 09:53:19;;;;;;;27.50;11.07;;;;;;;;;;5049220;28;20044;-74
2021/07/15 09:55:45;;;;;;;30.08;10.48;;;;;;;;;;5045373;28;20046;-73
2021/07/15 09:58:13;;;;;;;25.17;11.48;;;;;;;;;;5040426;28;20085;-73
2021/07/15 10:00:41;;;;;;;30.35;10.52;;;;;;;;;;5039691;28;20049;-74
2021/07/15 10:03:09;;;;;;;18.77;10.85;;;;;;;;;;5040078;28;20036;-73
2021/07/15 10:05:36;;;;;;;22.20;10.15;;;;;;;;;;5035964;28;20037;-73
2021/07/15 10:08:08;;;;;;;26.30;9.95;;;;;;;;;;5040980;28;20052;-73
2021/07/15 10:10:34;;;;;;;27.33;9.70;;;;;;;;;;5035827;28;20111;-73
2021/07/15 10:13:12;;;;;;;30.70;9.50;;;;;;;;;;5043554;28;20064;-73
2021/07/15 10:15:39;;;;;;;24.67;10.32;;;;;;;;;;5048373;28;20067;-73
2021/07/15 10:18:05;;;;;;;25.33;10.70;;;;;;;;;;5048027;28;20036;-74
2021/07/15 10:20:31;;;;;;;22.08;10.63;;;;;;;;;;5042156;28;20044;-74
2021/07/15 10:22:58;;;;;;;24.33;9.48;;;;;;;;;;5047503;28;20362;-71
2021/07/15 10:25:24;;;;;;;25.95;10.27;;;;;;;;;;5041993;28;20441;-75
2021/07/15 10:27:50;;;;;;;25.60;10.68;;;;;;;;;;5035477;28;20116;-76
2021/07/15 10:30:17;;;;;;;24.95;9.98;;;;;;;;;;5035861;28;20052;-76
2021/07/15 10:32:44;;;;;;;26.05;11.35;;;;;;;;;;5025061;28;20041;-76
2021/07/15 10:35:16;;;;;;;21.20;10.45;;;;;;;;;;5039971;28;20053;-76
2021/07/15 10:37:44;;;;;;;23.60;11.40;;;;;;;;;;5048575;28;20044;-77
2021/07/15 10:40:31;;;;;;;24.92;10.63;;;;;;;;;;5035910;28;20210;-76
2021/07/15 10:42:57;;;;;;;23.40;11.05;;;;;;;;;;5043433;28;20037;-76
2021/07/15 10:45:24;;;;;;;26.38;10.90;;;;;;;;;;5036283;28;20041;-76
2021/07/15 10:47:54;;;;;;;26.10;10.40;;;;;;;;;;5043029;28;20047;-77
2021/07/15 10:50:21;;;;;;;19.30;9.68;;;;;;;;;;5038456;28;20119;-77
2021/07/15 10:52:48;;;;;;;24.35;9.85;;;;;;;;;;5038513;28;20074;-77
2021/07/15 10:55:14;;;;;;;24.20;9.55;;;;;;;;;;5039842;28;20515;-77
2021/07/15 10:57:40;;;;;;;21.13;9.00;;;;;;;;;;5038796;28;20434;-77
2021/07/15 11:00:20;;;;;;;20.13;8.18;;;;;;;;;;5041479;28;20060;-76
2021/07/15 11:02:47;;;;;;;22.45;9.35;;;;;;;;;;5045404;28;20049;-75
2021/07/15 11:05:27;;;;;;;23.02;8.50;;;;;;;;;;5043788;28;20033;-74
2021/07/15 11:07:53;;;;;;;21.90;8.52;;;;;;;;;;5046879;28;20052;-75
2021/07/15 11:10:21;;;;;;;26.35;9.25;;;;;;;;;;5038065;28;20350;-75
2021/07/15 11:12:58;;;;;;;25.60;9.43;;;;;;;;;;5038552;28;20040;-75
2021/07/15 11:15:44;;;;;;;27.48;9.60;;;;;;;;;;5047258;28;20095;-75
2021/07/15 11:18:10;;;;;;;24.83;10.05;;;;;;;;;;5043457;28;20123;-75
2021/07/15 11:20:36;;;;;;;21.42;8.20;;;;;;;;;;5046699;28;20087;-75
2021/07/15 11:23:08;;;;;;;22.77;8.75;;;;;;;;;;5041725;28;20048;-75
2021/07/15 11:25:36;;;;;;;25.10;9.60;;;;;;;;;;5047815;28;20049;-75
2021/07/15 11:28:15;;;;;;;18.42;8.32;;;;;;;;;;5043326;28;20052;-75
2021/07/15 11:30:44;;;;;;;20.08;8.35;;;;;;;;;;5042837;28;20053;-75
2021/07/15 11:33:19;;;;;;;24.55;8.43;;;;;;;;;;5036379;28;20045;-76
2021/07/15 11:36:00;;;;;;;15.52;7.43;;;;;;;;;;5040626;28;20084;-75
2021/07/15 11:38:28;;;;;;;23.70;9.20;;;;;;;;;;5042449;28;20410;-75
2021/07/15 11:40:54;;;;;;;20.70;7.95;;;;;;;;;;5049780;28;20053;-75
2021/07/15 11:43:22;;;;;;;29.48;9.07;;;;;;;;;;5048154;28;20550;-75
2021/07/15 11:46:03;;;;;;;20.40;8.23;;;;;;;;;;5044222;28;20124;-76
2021/07/15 11:48:50;;;;;;;26.52;9.18;;;;;;;;;;5045114;28;20074;-75
2021/07/15 11:51:20;;;;;;;21.73;8.35;;;;;;;;;;5049834;28;20060;-75
2021/07/15 11:54:06;;;;;;;17.58;8.57;;;;;;;;;;5052038;28;20052;-76
2021/07/15 11:56:35;;;;;;;20.13;9.50;;;;;;;;;;5050903;28;20041;-76
2021/07/15 11:59:01;;;;;;;26.45;8.98;;;;;;;;;;5048690;28;20397;-75
2021/07/15 12:01:34;;;;;;;23.27;8.80;;;;;;;;;;5040068;28;20049;-76
2021/07/15 12:04:01;;;;;;;21.38;8.93;;;;;;;;;;5040220;28;20041;-76
2021/07/15 12:06:29;;;;;;;26.45;9.32;;;;;;;;;;5041279;28;20073;-75
2021/07/15 12:09:02;;;;;;;19.05;8.63;;;;;;;;;;5045127;28;20051;-75
2021/07/15 12:11:29;;;;;;;18.08;8.57;;;;;;;;;;5048366;28;20044;-76
2021/07/15 12:13:56;;;;;;;19.27;8.75;;;;;;;;;;5044946;28;20073;-75
2021/07/15 12:16:23;;;;;;;19.77;8.85;;;;;;;;;;5051399;28;20073;-75
2021/07/15 12:18:50;;;;;;;24.25;8.73;;;;;;;;;;5049274;28;20070;-72
2021/07/15 12:21:18;;;;;;;18.55;8.18;;;;;;;;;;5051177;28;20045;-75
2021/07/15 12:23:46;;;;;;;22.52;9.23;;;;;;;;;;5050401;28;20061;-76
2021/07/15 12:26:16;;;;;;;23.05;9.10;;;;;;;;;;5051241;28;20045;-75
2021/07/15 12:28:45;;;;;;;20.33;7.75;;;;;;;;;;5045809;28;20041;-75
2021/07/15 12:31:12;;;;;;;22.80;9.23;;;;;;;;;;5050415;28;20044;-75
2021/07/15 12:33:40;;;;;;;22.48;8.93;;;;;;;;;;5043946;28;20119;-76
2021/07/15 12:36:09;;;;;;;20.55;9.73;;;;;;;;;;5048204;28;20041;-75
2021/07/15 12:38:35;;;;;;;24.40;10.48;;;;;;;;;;5050760;28;20469;-75
2021/07/15 12:41:04;;;;;;;21.70;8.98;;;;;;;;;;5044473;28;20074;-75
2021/07/15 12:43:38;;;;;;;20.42;8.27;;;;;;;;;;5046225;28;20132;-75
2021/07/15 12:46:15;;;;;;;25.20;8.35;;;;;;;;;;5047567;28;20044;-75
2021/07/15 12:48:43;;;;;;;23.08;8.95;;;;;;;;;;5047756;28;20571;-76
2021/07/15 12:51:10;;;;;;;19.23;7.43;;;;;;;;;;5050929;28;20037;-75
2021/07/15 12:53:38;;;;;;;21.02;8.10;;;;;;;;;;5047659;28;20044;-75
2021/07/15 12:56:05;;;;;;;26.95;8.98;;;;;;;;;;5051952;28;20123;-76
2021/07/15 12:58:31;;;;;;;23.30;8.10;;;;;;;;;;5048279;28;20156;-76
2021/07/15 13:01:05;;;;;;;23.45;8.13;;;;;;;;;;5041390;28;20374;-75
2021/07/15 13:03:32;;;;;;;24.50;8.77;;;;;;;;;;5032260;28;20041;-75
2021/07/15 13:05:59;;;;;;;25.90;9.65;;;;;;;;;;5038713;28;20077;-75
2021/07/15 13:08:35;;;;;;;24.45;8.10;;;;;;;;;;5042809;28;20083;-75
2021/07/15 13:16:19;;;;;;;22.40;8.45;;;;;;;;;;5036213;28;20057;-75
2021/07/15 13:18:46;;;;;;;25.15;8.05;;;;;;;;;;5039498;28;20135;-75
2021/07/15 13:21:23;;;;;;;22.08;7.55;;;;;;;;;;5034251;28;20129;-76
2021/07/15 13:24:00;;;;;;;19.80;7.75;;;;;;;;;;5034738;28;20127;-76
2021/07/15 13:26:26;;;;;;;22.73;8.80;;;;;;;;;;5041755;28;20045;-75
2021/07/15 13:28:53;;;;;;;22.80;8.68;;;;;;;;;;5037010;28;20037;-75
2021/07/15 13:31:19;;;;;;;17.95;8.23;;;;;;;;;;5039156;28;20045;-75
2021/07/15 13:33:47;;;;;;;24.88;7.18;;;;;;;;;;5032346;28;20041;-76
2021/07/15 13:36:15;;;;;;;20.10;7.68;;;;;;;;;;5046448;28;20116;-76
2021/07/15 13:38:42;;;;;;;19.52;7.07;;;;;;;;;;5034638;28;20458;-75
2021/07/15 13:41:21;;;;;;;20.95;7.63;;;;;;;;;;5034895;28;20132;-75
2021/07/15 13:43:47;;;;;;;22.83;6.97;;;;;;;;;;5039377;28;20098;-75
2021/07/15 13:46:17;;;;;;;20.30;6.93;;;;;;;;;;5042500;28;20034;-75
2021/07/15 13:48:44;;;;;;;26.55;9.02;;;;;;;;;;5042393;28;20073;-75
2021/07/15 13:51:12;;;;;;;21.25;7.18;;;;;;;;;;5038584;28;20064;-75
2021/07/15 13:53:40;;;;;;;25.42;7.80;;;;;;;;;;5047876;28;20077;-75
2021/07/15 13:56:06;;;;;;;24.38;8.02;;;;;;;;;;5047144;28;20049;-75
2021/07/15 13:58:33;;;;;;;23.50;7.82;;;;;;;;;;5044516;28;20135;-75
2021/07/15 14:01:02;;;;;;;21.85;7.93;;;;;;;;;;5042576;28;20038;-75
2021/07/15 14:03:28;;;;;;;20.77;7.60;;;;;;;;;;5036988;28;20061;-75
2021/07/15 14:05:55;;;;;;;19.55;7.53;;;;;;;;;;5036412;28;20045;-75
2021/07/15 14:08:22;;;;;;;20.25;7.40;;;;;;;;;;5034867;28;20041;-75
2021/07/15 14:10:49;;;;;;;23.85;8.15;;;;;;;;;;5043725;28;20045;-75
2021/07/15 14:13:15;;;;;;;20.65;7.82;;;;;;;;;;5036702;28;20041;-75
2021/07/15 14:15:43;;;;;;;22.48;6.78;;;;;;;;;;5039779;28;20139;-75
2021/07/15 14:18:14;;;;;;;19.88;7.45;;;;;;;;;;5039216;28;20094;-75
2021/07/15 14:20:42;;;;;;;19.75;7.15;;;;;;;;;;5034673;28;20401;-75
2021/07/15 14:23:09;;;;;;;21.42;7.40;;;;;;;;;;5033404;28;20054;-75
2021/07/15 14:25:36;;;;;;;22.75;6.88;;;;;;;;;;5043653;28;20132;-75
2021/07/15 14:28:04;;;;;;;20.30;7.18;;;;;;;;;;5043258;28;20136;-75
2021/07/15 14:30:30;;;;;;;15.85;6.15;;;;;;;;;;5042329;28;20049;-75
2021/07/15 14:32:58;;;;;;;17.75;6.25;;;;;;;;;;5038586;28;20060;-75